createdAt,value
2017-11-08T00:00:09.243Z,6.95
2017-11-08T00:00:49.781Z,6.97
2017-11-08T00:01:30.303Z,6.98
2017-11-08T00:02:10.838Z,6.99
2017-11-08T00:02:51.374Z,6.95
2017-11-08T00:03:31.918Z,6.98
2017-11-08T00:04:12.447Z,6.97
2017-11-08T00:04:52.973Z,6.97
2017-11-08T00:05:33.502Z,6.92
2017-11-08T00:06:14.033Z,6.94
2017-11-08T00:06:54.583Z,6.94
2017-11-08T00:07:35.101Z,6.92
2017-11-08T00:08:15.635Z,7.03
2017-11-08T00:08:56.159Z,6.91
2017-11-08T00:09:36.716Z,6.97
2017-11-08T00:10:17.257Z,6.95
2017-11-08T00:10:57.773Z,6.92
2017-11-08T00:11:38.291Z,7.02
2017-11-08T00:12:18.816Z,6.92
2017-11-08T00:12:59.345Z,7.02
2017-11-08T00:13:39.885Z,6.99
2017-11-08T00:14:20.425Z,6.99
2017-11-08T00:15:00.962Z,7.03
2017-11-08T00:15:41.492Z,6.99
2017-11-08T00:16:22.011Z,6.95
2017-11-08T00:17:02.549Z,6.99
2017-11-08T00:17:43.069Z,6.95
2017-11-08T00:18:23.606Z,6.95
2017-11-08T00:19:04.139Z,6.99
2017-11-08T00:19:44.667Z,6.99
2017-11-08T00:20:25.204Z,6.99
2017-11-08T00:21:05.745Z,6.99
2017-11-08T00:21:46.265Z,6.97
2017-11-08T00:22:26.797Z,6.95
2017-11-08T00:23:07.325Z,6.94
2017-11-08T00:23:47.861Z,6.98
2017-11-08T00:24:28.387Z,6.99
2017-11-08T00:25:08.911Z,6.97
2017-11-08T00:25:49.440Z,7.02
2017-11-08T00:26:29.957Z,6.99
2017-11-08T00:27:10.483Z,6.98
2017-11-08T00:27:51.013Z,6.99
2017-11-08T00:28:31.539Z,6.98
2017-11-08T00:29:12.088Z,6.98
2017-11-08T00:29:52.596Z,7.05
2017-11-08T00:30:33.122Z,6.99
2017-11-08T00:31:13.650Z,7.03
2017-11-08T00:31:54.177Z,6.99
2017-11-08T00:32:34.708Z,7.06
2017-11-08T00:33:15.243Z,6.99
2017-11-08T00:33:55.801Z,6.98
2017-11-08T00:34:36.317Z,6.97
2017-11-08T00:35:16.853Z,7.06
2017-11-08T00:35:57.382Z,7.03
2017-11-08T00:36:37.933Z,6.94
2017-11-08T00:37:18.460Z,6.99
2017-11-08T00:37:58.984Z,6.97
2017-11-08T00:38:39.509Z,6.99
2017-11-08T00:39:20.039Z,6.98
2017-11-08T00:40:00.575Z,6.99
2017-11-08T00:40:41.106Z,7.07
2017-11-08T00:41:21.642Z,7.09
2017-11-08T00:42:02.167Z,6.98
2017-11-08T00:42:42.708Z,6.99
2017-11-08T00:43:23.255Z,6.97
2017-11-08T00:44:03.817Z,6.94
2017-11-08T00:44:44.349Z,6.92
2017-11-08T00:45:24.881Z,6.98
2017-11-08T00:46:05.418Z,6.98
2017-11-08T00:46:45.957Z,7.02
2017-11-08T00:47:26.506Z,7.03
2017-11-08T00:48:07.025Z,6.98
2017-11-08T00:48:47.564Z,6.99
2017-11-08T00:49:28.080Z,6.99
2017-11-08T00:50:08.609Z,7.02
2017-11-08T00:50:49.151Z,7.05
2017-11-08T00:51:29.677Z,7.09
2017-11-08T00:52:10.212Z,7.07
2017-11-08T00:52:50.740Z,7.09
2017-11-08T00:53:31.279Z,7.06
2017-11-08T00:54:11.813Z,7.05
2017-11-08T00:54:52.340Z,7.06
2017-11-08T00:55:32.868Z,7.07
2017-11-08T00:56:13.402Z,6.99
2017-11-08T00:56:53.945Z,7.09
2017-11-08T00:57:34.480Z,6.99
2017-11-08T00:58:14.981Z,7.03
2017-11-08T00:58:55.512Z,7.1
2017-11-08T00:59:36.046Z,7.02
2017-11-08T01:00:16.577Z,7.07
2017-11-08T01:00:57.107Z,7.12
2017-11-08T01:01:37.636Z,7.1
2017-11-08T01:02:18.170Z,7.06
2017-11-08T01:02:58.767Z,7.13
2017-11-08T01:03:39.232Z,7.12
2017-11-08T01:04:19.761Z,7.09
2017-11-08T01:05:00.294Z,7.03
2017-11-08T01:05:40.826Z,7.06
2017-11-08T01:06:21.355Z,7.07
2017-11-08T01:07:01.884Z,7.12
2017-11-08T01:07:42.428Z,7.1
2017-11-08T01:08:22.951Z,7.12
2017-11-08T01:09:03.488Z,7.1
2017-11-08T01:09:44.025Z,7.03
2017-11-08T01:10:24.556Z,7.07
2017-11-08T01:11:05.087Z,7.09
2017-11-08T01:11:45.605Z,7.03
2017-11-08T01:12:26.141Z,7.03
2017-11-08T01:13:06.676Z,7.07
2017-11-08T01:13:47.227Z,6.99
2017-11-08T01:14:27.736Z,7.09
2017-11-08T01:15:08.273Z,7.06
2017-11-08T01:15:48.816Z,7.1
2017-11-08T01:16:29.339Z,7.12
2017-11-08T01:17:09.862Z,7.1
2017-11-08T01:17:50.391Z,7.06
2017-11-08T01:18:30.926Z,7.09
2017-11-08T01:19:11.468Z,7.09
2017-11-08T01:19:51.995Z,7.02
2017-11-08T01:20:32.530Z,7.06
2017-11-08T01:21:13.070Z,7.1
2017-11-08T01:21:53.595Z,7.07
2017-11-08T01:22:34.142Z,7.06
2017-11-08T01:23:14.671Z,7.05
2017-11-08T01:23:55.201Z,7.1
2017-11-08T01:24:35.727Z,7.03
2017-11-08T01:25:16.266Z,7.03
2017-11-08T01:25:56.782Z,7.02
2017-11-08T01:26:37.317Z,7.07
2017-11-08T01:27:17.870Z,7.06
2017-11-08T01:27:58.419Z,7.03
2017-11-08T01:28:38.947Z,7.02
2017-11-08T01:29:19.480Z,7.06
2017-11-08T01:30:00.019Z,7.03
2017-11-08T01:30:40.567Z,7.02
2017-11-08T01:31:21.083Z,7.02
2017-11-08T01:32:01.618Z,7.12
2017-11-08T01:32:42.158Z,7.09
2017-11-08T01:33:22.700Z,7.05
2017-11-08T01:34:03.220Z,7.1
2017-11-08T01:34:43.753Z,6.99
2017-11-08T01:35:24.313Z,7.09
2017-11-08T01:36:04.825Z,7.06
2017-11-08T01:36:45.351Z,7.03
2017-11-08T01:37:25.891Z,7.07
2017-11-08T01:38:06.421Z,7.02
2017-11-08T01:38:46.942Z,7.07
2017-11-08T01:39:27.466Z,7.07
2017-11-08T01:40:07.982Z,7.07
2017-11-08T01:40:48.520Z,7.05
2017-11-08T01:41:29.057Z,7.02
2017-11-08T01:42:09.590Z,6.99
2017-11-08T01:42:50.116Z,6.92
2017-11-08T01:43:30.644Z,7.03
2017-11-08T01:44:11.167Z,6.97
2017-11-08T01:44:51.694Z,6.94
2017-11-08T01:45:32.222Z,7.03
2017-11-08T01:46:12.761Z,6.99
2017-11-08T01:46:53.279Z,6.98
2017-11-08T01:47:33.812Z,6.94
2017-11-08T01:48:14.351Z,6.97
2017-11-08T01:48:54.890Z,6.99
2017-11-08T01:49:35.422Z,6.94
2017-11-08T01:50:15.959Z,7.05
2017-11-08T01:50:56.503Z,6.98
2017-11-08T01:51:37.018Z,6.95
2017-11-08T01:52:17.554Z,6.98
2017-11-08T01:52:58.119Z,7.02
2017-11-08T01:53:38.646Z,6.97
2017-11-08T01:54:19.182Z,6.99
2017-11-08T01:54:59.724Z,6.95
2017-11-08T01:55:40.265Z,6.92
2017-11-08T01:56:20.801Z,6.92
2017-11-08T01:57:01.308Z,6.92
2017-11-08T01:57:41.845Z,6.98
2017-11-08T01:58:22.380Z,6.95
2017-11-08T01:59:02.905Z,6.97
2017-11-08T01:59:43.436Z,6.95
2017-11-08T02:00:23.981Z,6.92
2017-11-08T02:01:04.509Z,6.91
2017-11-08T02:01:45.030Z,6.97
2017-11-08T02:02:25.577Z,6.88
2017-11-08T02:03:06.108Z,6.95
2017-11-08T02:03:46.651Z,6.97
2017-11-08T02:04:27.162Z,6.95
2017-11-08T02:05:07.705Z,6.94
2017-11-08T02:05:48.239Z,6.95
2017-11-08T02:06:28.775Z,6.99
2017-11-08T02:07:09.295Z,6.97
2017-11-08T02:07:49.817Z,6.95
2017-11-08T02:08:30.363Z,6.98
2017-11-08T02:09:10.901Z,6.89
2017-11-08T02:09:51.433Z,7.02
2017-11-08T02:10:31.974Z,7.03
2017-11-08T02:11:12.493Z,6.95
2017-11-08T02:11:53.029Z,6.99
2017-11-08T03:56:31.334Z,6.95
2017-11-08T03:57:11.835Z,6.95
2017-11-08T03:57:52.352Z,6.95
2017-11-08T03:58:32.892Z,6.98
2017-11-08T03:59:13.424Z,6.92
2017-11-08T03:59:53.949Z,6.98
2017-11-08T04:00:34.471Z,6.95
2017-11-08T04:01:15.005Z,6.98
2017-11-08T04:01:55.514Z,6.95
2017-11-08T04:02:36.053Z,6.91
2017-11-08T04:03:16.574Z,6.91
2017-11-08T04:03:57.102Z,6.92
2017-11-08T04:04:37.632Z,7.03
2017-11-08T04:05:18.161Z,6.98
2017-11-08T04:05:58.689Z,7.03
2017-11-08T04:06:39.208Z,6.98
2017-11-08T04:07:19.733Z,6.98
2017-11-08T04:08:00.271Z,6.99
2017-11-08T04:08:40.814Z,7.03
2017-11-08T04:09:21.348Z,6.95
2017-11-08T04:10:01.913Z,6.99
2017-11-08T04:10:42.448Z,7.03
2017-11-08T04:11:22.980Z,7.09
2017-11-08T04:12:03.508Z,7.09
2017-11-08T04:12:44.046Z,7.09
2017-11-08T04:13:24.570Z,6.99
2017-11-08T04:14:05.092Z,6.99
2017-11-08T04:14:45.627Z,7.03
2017-11-08T04:15:26.160Z,7.09
2017-11-08T04:16:06.692Z,6.99
2017-11-08T04:16:47.228Z,6.99
2017-11-08T04:17:27.755Z,7.06
2017-11-08T04:18:08.280Z,6.99
2017-11-08T04:18:48.812Z,6.99
2017-11-08T04:19:29.331Z,7.07
2017-11-08T04:20:09.875Z,6.95
2017-11-08T04:20:50.407Z,6.98
2017-11-08T04:21:30.928Z,6.99
2017-11-08T04:22:11.465Z,7.03
2017-11-08T04:22:51.990Z,6.95
2017-11-08T04:23:32.521Z,7.02
2017-11-08T04:24:13.042Z,6.97
2017-11-08T04:24:53.571Z,6.98
2017-11-08T04:25:34.109Z,6.98
2017-11-08T04:26:14.638Z,6.95
2017-11-08T04:26:55.172Z,6.98
2017-11-08T04:27:35.706Z,6.99
2017-11-08T04:28:16.236Z,6.99
2017-11-08T04:28:56.767Z,7.05
2017-11-08T04:29:37.297Z,6.98
2017-11-08T04:30:17.826Z,7.03
2017-11-08T04:30:58.349Z,6.97
2017-11-08T04:31:38.876Z,7.06
2017-11-08T04:32:19.396Z,6.95
2017-11-08T04:32:59.912Z,6.99
2017-11-08T04:33:40.439Z,6.99
2017-11-08T04:34:20.986Z,6.98
2017-11-08T04:35:01.535Z,6.98
2017-11-08T04:35:42.077Z,6.98
2017-11-08T04:36:22.687Z,6.99
2017-11-08T04:37:03.276Z,6.94
2017-11-08T04:37:43.809Z,6.98
2017-11-08T04:38:24.340Z,6.99
2017-11-08T04:39:05.052Z,6.98
2017-11-08T04:39:45.577Z,6.99
2017-11-08T04:40:26.107Z,7.05
2017-11-08T04:41:06.634Z,7.05
2017-11-08T04:41:47.154Z,6.99
2017-11-08T04:42:27.685Z,6.91
2017-11-08T04:43:08.201Z,6.98
2017-11-08T04:43:48.744Z,7.03
2017-11-08T04:44:29.253Z,7.03
2017-11-08T04:45:09.774Z,6.95
2017-11-08T04:45:50.342Z,7.06
2017-11-08T04:46:30.894Z,7.03
2017-11-08T04:47:11.396Z,6.98
2017-11-08T04:47:51.923Z,6.95
2017-11-08T04:48:32.441Z,7.05
2017-11-08T04:49:12.986Z,7.09
2017-11-08T04:49:53.508Z,7.06
2017-11-08T04:50:34.256Z,7.05
2017-11-08T04:51:14.775Z,6.99
2017-11-08T04:51:55.299Z,7.05
2017-11-08T04:52:35.825Z,7.07
2017-11-08T04:53:16.355Z,7.09
2017-11-08T04:53:56.911Z,7.09
2017-11-08T04:54:37.458Z,7.1
2017-11-08T04:55:17.989Z,7.03
2017-11-08T04:55:58.555Z,7.09
2017-11-08T04:56:39.075Z,7.06
2017-11-08T04:57:19.613Z,7.02
2017-11-08T04:58:00.142Z,7.1
2017-11-08T04:58:40.682Z,7.03
2017-11-08T04:59:21.208Z,7.07
2017-11-08T05:00:01.725Z,7.07
2017-11-08T05:00:42.275Z,7.07
2017-11-08T05:01:22.854Z,7.1
2017-11-08T05:02:03.392Z,7.09
2017-11-08T05:02:44.277Z,7.07
2017-11-08T05:03:25.201Z,7.09
2017-11-08T05:04:05.746Z,7.09
2017-11-08T05:04:46.279Z,7.06
2017-11-08T05:05:26.813Z,7.09
2017-11-08T05:06:07.738Z,7.09
2017-11-08T05:06:48.258Z,7.03
2017-11-08T05:07:28.798Z,7.05
2017-11-08T05:08:09.356Z,7.07
2017-11-08T05:08:50.839Z,7.06
2017-11-08T05:09:31.555Z,7.05
2017-11-08T05:10:12.584Z,7.03
2017-11-08T05:10:53.284Z,7.12
2017-11-08T05:11:33.798Z,7.09
2017-11-08T05:12:14.309Z,7.1
2017-11-08T05:12:54.832Z,7.09
2017-11-08T05:13:35.363Z,7.1
2017-11-08T05:14:15.892Z,7.06
2017-11-08T05:14:56.411Z,7.05
2017-11-08T05:15:36.932Z,7.16
2017-11-08T05:16:17.466Z,7.1
2017-11-08T05:16:57.995Z,7.06
2017-11-08T05:17:38.514Z,7.15
2017-11-08T05:18:19.048Z,7.09
2017-11-08T05:18:59.574Z,7.07
2017-11-08T05:19:40.153Z,7.09
2017-11-08T05:20:20.667Z,7.16
2017-11-08T05:21:01.219Z,7.09
2017-11-08T05:21:41.719Z,7.16
2017-11-08T05:22:22.237Z,7.06
2017-11-08T05:23:02.765Z,7.07
2017-11-08T05:23:43.305Z,7.06
2017-11-08T05:24:23.847Z,7.16
2017-11-08T05:25:04.379Z,7.09
2017-11-08T05:25:44.901Z,7.1
2017-11-08T05:26:25.434Z,7.16
2017-11-08T05:27:05.970Z,7.06
2017-11-08T05:27:46.521Z,7.12
2017-11-08T05:28:27.020Z,7.07
2017-11-08T05:29:07.549Z,7.1
2017-11-08T05:29:48.085Z,7.06
2017-11-08T05:30:28.671Z,7.09
2017-11-08T05:31:09.193Z,7.07
2017-11-08T05:31:49.698Z,7.2
2017-11-08T05:32:30.218Z,7.07
2017-11-08T05:33:10.746Z,7.13
2017-11-08T05:33:51.276Z,7.07
2017-11-08T05:34:31.864Z,7.1
2017-11-08T05:35:12.375Z,7.09
2017-11-08T05:35:52.903Z,7.09
2017-11-08T05:36:33.435Z,7.15
2017-11-08T05:37:13.963Z,7.09
2017-11-08T05:37:54.492Z,7.1
2017-11-08T05:38:35.020Z,7.13
2017-11-08T05:39:15.558Z,7.06
2017-11-08T05:39:56.084Z,7.15
2017-11-08T05:40:36.604Z,7.09
2017-11-08T05:41:17.147Z,7.15
2017-11-08T05:41:57.675Z,7.1
2017-11-08T05:42:38.208Z,7.12
2017-11-08T05:43:18.723Z,7.16
2017-11-08T05:43:59.251Z,7.15
2017-11-08T05:44:39.786Z,7.09
2017-11-08T05:45:20.296Z,7.17
2017-11-08T05:46:00.806Z,7.1
2017-11-08T05:46:41.317Z,7.16
2017-11-08T05:47:21.856Z,7.17
2017-11-08T05:48:02.381Z,7.17
2017-11-08T05:48:42.903Z,7.09
2017-11-08T05:49:23.436Z,7.09
2017-11-08T05:50:04.266Z,7.13
2017-11-08T05:50:45.826Z,7.13
2017-11-08T05:51:26.357Z,7.16
2017-11-08T05:52:06.886Z,7.09
2017-11-08T05:52:47.418Z,7.12
2017-11-08T05:53:27.958Z,7.09
2017-11-08T05:54:08.494Z,7.15
2017-11-08T05:54:49.010Z,7.09
2017-11-08T05:55:29.529Z,7.09
2017-11-08T05:56:10.066Z,7.12
2017-11-08T05:56:50.588Z,7.15
2017-11-08T05:57:31.113Z,7.15
2017-11-08T05:58:11.643Z,7.17
2017-11-08T05:58:52.173Z,7.1
2017-11-08T05:59:32.700Z,7.17
2017-11-08T06:00:13.203Z,7.15
2017-11-08T06:00:54.202Z,7.16
2017-11-08T06:01:34.747Z,7.23
2017-11-08T06:02:15.264Z,7.1
2017-11-08T06:02:55.797Z,7.23
2017-11-08T06:03:36.314Z,7.13
2017-11-08T06:04:16.905Z,7.1
2017-11-08T06:04:59.260Z,7.17
2017-11-08T06:05:41.755Z,7.24
2017-11-08T06:07:32.470Z,7.21
2017-11-08T06:08:13.708Z,7.13
2017-11-08T06:08:54.229Z,7.2
2017-11-08T06:09:34.740Z,7.17
2017-11-08T06:10:15.280Z,7.13
2017-11-08T06:10:55.808Z,7.13
2017-11-08T06:11:36.332Z,7.12
2017-11-08T06:12:16.867Z,7.1
2017-11-08T06:12:57.389Z,7.16
2017-11-08T06:13:37.926Z,7.12
2017-11-08T06:14:18.447Z,7.13
2017-11-08T06:14:58.976Z,7.17
2017-11-08T06:15:39.500Z,7.1
2017-11-08T06:16:20.041Z,7.17
2017-11-08T06:17:00.540Z,7.15
2017-11-08T06:17:41.061Z,7.12
2017-11-08T06:18:21.579Z,7.1
2017-11-08T06:19:02.116Z,7.12
2017-11-08T06:19:42.627Z,7.15
2017-11-08T06:20:24.299Z,7.09
2017-11-08T06:21:04.849Z,7.17
2017-11-08T06:21:45.351Z,7.16
2017-11-08T06:22:25.872Z,7.1
2017-11-08T06:23:06.402Z,7.16
2017-11-08T06:23:46.921Z,7.09
2017-11-08T06:24:27.535Z,7.1
2017-11-08T06:25:08.093Z,7.1
2017-11-08T06:25:48.620Z,7.12
2017-11-08T06:26:29.143Z,7.09
2017-11-08T06:27:09.674Z,7.13
2017-11-08T06:27:50.200Z,7.1
2017-11-08T06:28:30.717Z,7.09
2017-11-08T06:29:11.507Z,7.12
2017-11-08T06:29:52.054Z,7.13
2017-11-08T06:30:32.567Z,7.13
2017-11-08T06:31:13.100Z,7.15
2017-11-08T06:31:53.630Z,7.12
2017-11-08T06:32:34.157Z,7.16
2017-11-08T06:33:14.686Z,7.16
2017-11-08T06:33:55.217Z,7.17
2017-11-08T06:34:35.734Z,7.2
2017-11-08T06:35:16.263Z,7.13
2017-11-08T06:35:56.782Z,7.16
2017-11-08T06:36:37.309Z,7.16
2017-11-08T06:37:17.843Z,7.2
2017-11-08T06:37:58.373Z,7.23
2017-11-08T06:38:38.914Z,7.21
2017-11-08T06:39:19.448Z,7.13
2017-11-08T06:39:59.970Z,7.17
2017-11-08T06:40:40.500Z,7.2
2017-11-08T06:41:21.047Z,7.17
2017-11-08T06:42:01.571Z,7.17
2017-11-08T06:42:42.098Z,7.16
2017-11-08T06:43:22.622Z,7.2
2017-11-08T06:44:03.151Z,7.12
2017-11-08T06:44:43.676Z,7.13
2017-11-08T06:45:24.206Z,7.15
2017-11-08T06:46:04.733Z,7.2
2017-11-08T06:46:45.263Z,7.23
2017-11-08T06:47:25.790Z,7.2
2017-11-08T06:48:06.332Z,7.15
2017-11-08T06:48:46.860Z,7.17
2017-11-08T06:49:27.370Z,7.17
2017-11-08T06:50:07.896Z,7.16
2017-11-08T06:50:48.416Z,7.16
2017-11-08T06:51:28.931Z,7.2
2017-11-08T06:52:09.472Z,7.15
2017-11-08T06:52:50.008Z,7.17
2017-11-08T06:53:30.538Z,7.2
2017-11-08T06:54:11.066Z,7.2
2017-11-08T06:54:51.593Z,7.17
2017-11-08T06:55:32.115Z,7.17
2017-11-08T06:56:12.648Z,7.13
2017-11-08T06:56:53.170Z,7.16
2017-11-08T06:57:33.711Z,7.16
2017-11-08T06:58:14.240Z,7.17
2017-11-08T06:58:54.786Z,7.2
2017-11-08T06:59:35.310Z,7.23
2017-11-08T07:00:15.847Z,7.21
2017-11-08T07:00:56.424Z,7.13
2017-11-08T07:01:36.917Z,7.12
2017-11-08T07:02:17.450Z,7.15
2017-11-08T07:02:57.985Z,7.13
2017-11-08T07:03:38.517Z,7.21
2017-11-08T07:04:19.101Z,7.2
2017-11-08T07:04:59.622Z,7.17
2017-11-08T07:05:40.163Z,7.15
2017-11-08T07:06:20.687Z,7.13
2017-11-08T07:07:01.220Z,7.16
2017-11-08T07:07:41.749Z,7.16
2017-11-08T07:08:22.277Z,7.13
2017-11-08T07:09:02.801Z,7.15
2017-11-08T07:09:43.333Z,7.2
2017-11-08T07:10:23.904Z,7.23
2017-11-08T07:11:04.399Z,7.16
2017-11-08T07:11:44.918Z,7.24
2017-11-08T07:12:25.458Z,7.24
2017-11-08T07:13:05.986Z,7.24
2017-11-08T07:13:46.505Z,7.24
2017-11-08T07:14:27.030Z,7.23
2017-11-08T07:15:07.564Z,7.24
2017-11-08T07:15:48.093Z,7.24
2017-11-08T07:16:28.629Z,7.09
2017-11-08T07:17:09.151Z,7.23
2017-11-08T07:17:49.684Z,7.25
2017-11-08T07:18:30.212Z,7.27
2017-11-08T07:19:10.742Z,7.09
2017-11-08T07:19:51.277Z,7.21
2017-11-08T07:20:31.793Z,7.27
2017-11-08T07:21:12.331Z,7.23
2017-11-08T07:21:52.851Z,7.25
2017-11-08T07:22:33.379Z,7.25
2017-11-08T07:23:13.906Z,7.31
2017-11-08T07:23:54.431Z,7.21
2017-11-08T07:24:34.967Z,7.2
2017-11-08T07:25:15.492Z,7.24
2017-11-08T07:25:56.012Z,7.17
2017-11-08T07:26:36.542Z,7.2
2017-11-08T07:27:17.070Z,7.23
2017-11-08T07:27:57.605Z,7.25
2017-11-08T07:28:38.133Z,7.17
2017-11-08T07:29:18.665Z,7.16
2017-11-08T07:29:59.202Z,7.3
2017-11-08T07:30:39.731Z,7.28
2017-11-08T07:31:20.259Z,7.28
2017-11-08T07:32:00.799Z,7.16
2017-11-08T07:32:41.338Z,7.31
2017-11-08T07:33:21.865Z,7.21
2017-11-08T07:34:02.394Z,7.31
2017-11-08T07:34:42.920Z,7.24
2017-11-08T07:35:23.448Z,7.23
2017-11-08T07:36:03.977Z,7.2
2017-11-08T07:36:44.524Z,7.25
2017-11-08T07:37:25.030Z,7.16
2017-11-08T07:38:05.544Z,7.17
2017-11-08T07:38:46.066Z,7.17
2017-11-08T07:39:26.597Z,7.2
2017-11-08T07:40:07.128Z,7.21
2017-11-08T07:40:47.706Z,7.2
2017-11-08T07:41:28.213Z,7.23
2017-11-08T07:42:08.749Z,7.2
2017-11-08T07:42:49.270Z,7.24
2017-11-08T07:43:29.792Z,7.32
2017-11-08T07:44:10.319Z,7.3
2017-11-08T07:44:50.854Z,7.21
2017-11-08T07:45:31.393Z,7.3
2017-11-08T07:46:11.928Z,7.27
2017-11-08T07:46:52.450Z,7.32
2017-11-08T07:47:32.977Z,7.31
2017-11-08T07:48:13.509Z,7.28
2017-11-08T07:48:54.034Z,7.31
2017-11-08T07:49:34.554Z,7.25
2017-11-08T07:50:15.079Z,7.28
2017-11-08T07:50:55.603Z,7.31
2017-11-08T07:51:36.140Z,7.34
2017-11-08T07:52:16.663Z,7.35
2017-11-08T07:52:57.193Z,7.32
2017-11-08T07:53:37.723Z,7.37
2017-11-08T07:54:18.251Z,7.4
2017-11-08T07:54:58.777Z,7.37
2017-11-08T07:55:39.315Z,7.39
2017-11-08T07:56:19.812Z,7.31
2017-11-08T07:57:00.341Z,7.27
2017-11-08T07:57:40.872Z,7.43
2017-11-08T07:58:21.407Z,7.43
2017-11-08T07:59:01.942Z,7.34
2017-11-08T07:59:42.474Z,7.37
2017-11-08T08:00:23.000Z,7.34
2017-11-08T08:01:03.528Z,7.43
2017-11-08T08:01:44.059Z,7.42
2017-11-08T08:02:24.599Z,7.43
2017-11-08T08:03:05.128Z,7.45
2017-11-08T08:03:45.657Z,7.37
2017-11-08T08:04:26.186Z,7.46
2017-11-08T08:05:06.725Z,7.48
2017-11-08T08:05:47.260Z,7.49
2017-11-08T08:06:27.788Z,7.34
2017-11-08T08:07:08.320Z,7.46
2017-11-08T08:07:48.853Z,7.48
2017-11-08T08:08:29.379Z,7.45
2017-11-08T08:09:09.917Z,7.48
2017-11-08T08:09:50.445Z,7.39
2017-11-08T08:10:30.974Z,7.49
2017-11-08T08:11:11.515Z,7.48
2017-11-08T08:11:52.049Z,7.46
2017-11-08T08:12:32.577Z,7.42
2017-11-08T08:13:13.108Z,7.5
2017-11-08T08:13:53.644Z,7.53
2017-11-08T08:14:34.177Z,7.48
2017-11-08T08:15:14.709Z,7.52
2017-11-08T08:15:55.240Z,7.55
2017-11-08T08:16:35.770Z,7.5
2017-11-08T08:17:16.296Z,7.5
2017-11-08T08:17:56.828Z,7.55
2017-11-08T08:18:37.363Z,7.49
2017-11-08T08:19:17.887Z,7.52
2017-11-08T08:19:58.420Z,7.52
2017-11-08T08:20:38.953Z,7.52
2017-11-08T08:21:19.485Z,7.5
2017-11-08T08:22:00.017Z,7.49
2017-11-08T08:22:40.544Z,7.55
2017-11-08T08:23:21.077Z,7.49
2017-11-08T08:24:01.617Z,7.52
2017-11-08T08:24:42.154Z,7.61
2017-11-08T08:25:22.684Z,7.52
2017-11-08T08:26:03.208Z,7.48
2017-11-08T08:26:43.753Z,7.58
2017-11-08T08:27:24.278Z,7.52
2017-11-08T08:28:04.811Z,7.55
2017-11-08T08:28:45.340Z,7.53
2017-11-08T08:29:25.871Z,7.57
2017-11-08T08:30:06.410Z,7.6
2017-11-08T08:30:46.936Z,7.53
2017-11-08T08:31:27.468Z,7.58
2017-11-08T08:32:08.002Z,7.58
2017-11-08T08:32:48.542Z,7.57
2017-11-08T08:33:29.069Z,7.58
2017-11-08T08:34:09.601Z,7.61
2017-11-08T08:34:50.133Z,7.63
2017-11-08T08:35:30.665Z,7.61
2017-11-08T08:36:11.188Z,7.67
2017-11-08T08:36:51.724Z,7.63
2017-11-08T08:37:32.256Z,7.63
2017-11-08T08:38:12.793Z,7.68
2017-11-08T08:38:53.326Z,7.74
2017-11-08T08:39:33.864Z,7.63
2017-11-08T08:40:14.389Z,7.68
2017-11-08T08:40:54.929Z,7.63
2017-11-08T08:41:35.468Z,7.61
2017-11-08T08:42:16.005Z,7.75
2017-11-08T08:42:56.539Z,7.67
2017-11-08T08:43:37.070Z,7.68
2017-11-08T08:44:17.607Z,7.64
2017-11-08T08:44:58.144Z,7.68
2017-11-08T08:45:38.674Z,7.69
2017-11-08T08:46:19.223Z,7.68
2017-11-08T08:46:59.757Z,7.68
2017-11-08T08:47:40.284Z,7.69
2017-11-08T08:48:20.818Z,7.71
2017-11-08T08:49:01.347Z,7.72
2017-11-08T08:49:41.880Z,7.72
2017-11-08T08:50:22.404Z,7.77
2017-11-08T08:51:02.929Z,7.72
2017-11-08T08:51:43.456Z,7.71
2017-11-08T08:52:23.986Z,7.75
2017-11-08T08:53:04.518Z,7.71
2017-11-08T08:53:45.046Z,7.74
2017-11-08T08:54:25.587Z,7.71
2017-11-08T08:55:06.135Z,7.71
2017-11-08T08:55:46.658Z,7.74
2017-11-08T08:56:27.194Z,7.77
2017-11-08T08:57:07.726Z,7.74
2017-11-08T08:57:48.253Z,7.71
2017-11-08T08:58:28.787Z,7.75
2017-11-08T08:59:09.326Z,7.77
2017-11-08T08:59:49.858Z,7.8
2017-11-08T09:00:30.387Z,7.8
2017-11-08T09:01:10.914Z,7.82
2017-11-08T09:01:51.441Z,7.8
2017-11-08T09:02:31.977Z,7.82
2017-11-08T09:03:12.496Z,7.77
2017-11-08T09:03:53.033Z,7.87
2017-11-08T09:04:33.558Z,7.79
2017-11-08T09:05:14.080Z,7.83
2017-11-08T09:05:54.625Z,7.83
2017-11-08T09:06:35.124Z,7.89
2017-11-08T09:07:15.670Z,7.85
2017-11-08T09:07:56.181Z,7.82
2017-11-08T09:08:36.714Z,7.77
2017-11-08T09:09:17.252Z,7.79
2017-11-08T09:09:57.772Z,7.85
2017-11-08T09:10:38.293Z,7.92
2017-11-08T09:11:18.818Z,7.85
2017-11-08T09:11:59.352Z,7.72
2017-11-08T09:12:39.862Z,7.85
2017-11-08T09:13:20.390Z,7.89
2017-11-08T09:14:00.917Z,7.9
2017-11-08T09:14:41.445Z,7.93
2017-11-08T09:15:21.962Z,7.92
2017-11-08T09:16:02.508Z,7.93
2017-11-08T09:16:43.042Z,7.98
2017-11-08T09:17:23.576Z,7.95
2017-11-08T09:18:04.099Z,7.92
2017-11-08T09:18:44.619Z,7.92
2017-11-08T09:19:25.151Z,7.92
2017-11-08T09:20:05.688Z,7.93
2017-11-08T09:20:46.200Z,7.87
2017-11-08T09:21:26.724Z,7.93
2017-11-08T09:22:07.247Z,7.95
2017-11-08T09:22:47.773Z,7.98
2017-11-08T09:23:28.301Z,7.98
2017-11-08T09:24:08.832Z,7.92
2017-11-08T09:24:49.366Z,7.87
2017-11-08T09:25:29.900Z,7.95
2017-11-08T09:26:10.431Z,8.04
2017-11-08T09:26:50.965Z,7.89
2017-11-08T09:27:31.494Z,7.93
2017-11-08T09:28:12.027Z,7.98
2017-11-08T09:28:52.563Z,7.97
2017-11-08T09:29:33.086Z,7.93
2017-11-08T09:30:13.615Z,7.97
2017-11-08T09:30:54.144Z,8.05
2017-11-08T09:31:34.672Z,7.98
2017-11-08T09:32:15.204Z,7.92
2017-11-08T09:32:55.746Z,7.98
2017-11-08T09:33:36.277Z,7.97
2017-11-08T09:34:16.809Z,8.07
2017-11-08T09:34:57.335Z,8.05
2017-11-08T09:35:37.870Z,7.97
2017-11-08T09:36:18.404Z,8.05
2017-11-08T09:36:58.939Z,8.01
2017-11-08T09:37:39.468Z,8
2017-11-08T09:38:19.996Z,8.04
2017-11-08T09:39:00.515Z,8
2017-11-08T09:39:41.049Z,7.89
2017-11-08T09:40:21.584Z,7.98
2017-11-08T09:41:02.110Z,8.04
2017-11-08T09:41:42.638Z,8
2017-11-08T09:42:23.174Z,8.02
2017-11-08T09:43:03.701Z,8
2017-11-08T09:43:44.231Z,8
2017-11-08T09:44:24.765Z,8.1
2017-11-08T09:45:05.306Z,8.02
2017-11-08T09:45:45.833Z,8.01
2017-11-08T09:46:26.369Z,8.02
2017-11-08T09:47:06.903Z,8.11
2017-11-08T09:47:47.426Z,8.02
2017-11-08T09:48:27.956Z,8.01
2017-11-08T09:49:08.479Z,8.07
2017-11-08T09:49:49.014Z,8.15
2017-11-08T09:50:29.541Z,8.1
2017-11-08T09:51:10.060Z,8.08
2017-11-08T09:51:50.585Z,8.07
2017-11-08T09:52:31.109Z,8.11
2017-11-08T09:53:11.671Z,8.18
2017-11-08T09:53:52.163Z,8.19
2017-11-08T09:54:32.681Z,8.15
2017-11-08T09:55:13.213Z,8.1
2017-11-08T09:55:53.763Z,8.08
2017-11-08T09:56:34.280Z,8.08
2017-11-08T09:57:14.822Z,8.12
2017-11-08T09:57:55.345Z,8.1
2017-11-08T09:58:35.885Z,8.08
2017-11-08T09:59:16.416Z,8.08
2017-11-08T09:59:56.952Z,8.07
2017-11-08T10:00:37.490Z,8.11
2017-11-08T10:01:18.031Z,8.15
2017-11-08T10:01:58.567Z,8.15
2017-11-08T10:02:39.091Z,8.15
2017-11-08T10:03:19.631Z,8.15
2017-11-08T10:04:00.158Z,8.1
2017-11-08T10:04:40.676Z,8.12
2017-11-08T10:05:21.209Z,8.1
2017-11-08T10:06:01.729Z,8.15
2017-11-08T10:06:42.320Z,8.19
2017-11-08T10:07:22.801Z,8.23
2017-11-08T10:08:03.377Z,8.12
2017-11-08T10:08:43.882Z,8.16
2017-11-08T10:09:24.418Z,8.29
2017-11-08T10:10:04.968Z,8.2
2017-11-08T10:10:45.494Z,8.23
2017-11-08T10:11:26.023Z,8.2
2017-11-08T10:12:06.559Z,8.22
2017-11-08T10:12:47.086Z,8.23
2017-11-08T10:13:27.640Z,8.25
2017-11-08T10:14:08.183Z,8.22
2017-11-08T10:14:48.710Z,8.25
2017-11-08T10:15:29.208Z,8.23
2017-11-08T10:16:09.736Z,8.22
2017-11-08T10:16:50.267Z,8.28
2017-11-08T10:17:30.799Z,8.3
2017-11-08T10:18:11.313Z,8.28
2017-11-08T10:18:51.916Z,8.26
2017-11-08T10:19:32.371Z,8.25
2017-11-08T10:20:12.901Z,8.26
2017-11-08T10:20:53.440Z,8.36
2017-11-08T10:21:33.980Z,8.28
2017-11-08T10:22:14.509Z,8.43
2017-11-08T10:22:55.048Z,8.36
2017-11-08T10:23:35.573Z,8.38
2017-11-08T10:24:16.107Z,8.33
2017-11-08T10:24:56.629Z,8.41
2017-11-08T10:25:37.171Z,8.45
2017-11-08T10:26:17.709Z,8.38
2017-11-08T10:26:58.296Z,8.38
2017-11-08T10:27:38.829Z,8.41
2017-11-08T10:28:19.357Z,8.45
2017-11-08T10:28:59.874Z,8.45
2017-11-08T10:29:40.393Z,8.45
2017-11-08T10:30:20.935Z,8.44
2017-11-08T10:31:01.456Z,8.44
2017-11-08T10:31:41.973Z,8.47
2017-11-08T10:32:22.506Z,8.41
2017-11-08T10:33:03.044Z,8.41
2017-11-08T10:33:43.632Z,8.43
2017-11-08T10:34:24.168Z,8.43
2017-11-08T10:35:04.704Z,8.47
2017-11-08T10:35:45.241Z,8.44
2017-11-08T10:36:25.778Z,8.48
2017-11-08T10:37:06.307Z,8.45
2017-11-08T10:37:46.842Z,8.44
2017-11-08T10:38:27.374Z,8.41
2017-11-08T10:39:07.901Z,8.47
2017-11-08T10:39:48.442Z,8.45
2017-11-08T10:40:28.976Z,8.43
2017-11-08T10:41:09.504Z,8.47
2017-11-08T10:41:50.072Z,8.43
2017-11-08T10:42:30.564Z,8.47
2017-11-08T10:43:11.104Z,8.44
2017-11-08T10:43:51.649Z,8.47
2017-11-08T10:44:32.182Z,8.47
2017-11-08T10:45:12.721Z,8.43
2017-11-08T10:45:53.246Z,8.47
2017-11-08T10:46:33.776Z,8.44